createdAt,value
2023-03-27T00:01:34.322Z,5.63
2023-03-27T00:04:02.521Z,6.28
2023-03-27T00:06:34.538Z,5.75
2023-03-27T00:09:04.559Z,4.72
2023-03-27T00:11:33.188Z,4.70
2023-03-27T00:14:01.491Z,3.40
2023-03-27T00:16:30.522Z,2.25
2023-03-27T00:18:58.878Z,2.60
2023-03-27T00:21:28.180Z,2.67
2023-03-27T00:23:56.723Z,2.13
2023-03-27T00:26:24.998Z,3.22
2023-03-27T00:28:53.542Z,3.30
2023-03-27T00:31:21.894Z,3.13
2023-03-27T00:33:50.101Z,3.75
2023-03-27T00:36:18.251Z,3.22
2023-03-27T00:38:46.383Z,2.85
2023-03-27T00:41:14.709Z,2.30
2023-03-27T00:43:44.130Z,1.80
2023-03-27T00:46:34.843Z,1.75
2023-03-27T00:49:08.308Z,1.77
2023-03-27T00:51:39.240Z,1.73
2023-03-27T00:54:08.571Z,1.45
2023-03-27T00:56:39.743Z,1.48
2023-03-27T00:59:13.768Z,1.38
2023-03-27T01:01:45.764Z,1.77
2023-03-27T01:04:14.054Z,1.33
2023-03-27T01:06:43.452Z,1.30
2023-03-27T01:09:11.559Z,1.30
2023-03-27T01:11:52.401Z,1.67
2023-03-27T01:14:48.700Z,1.27
2023-03-27T01:17:34.951Z,1.27
2023-03-27T01:20:24.683Z,1.50
2023-03-27T01:23:02.124Z,1.83
2023-03-27T01:25:42.104Z,1.40
2023-03-27T01:28:22.460Z,1.20
2023-03-27T01:30:56.378Z,1.40
2023-03-27T01:33:31.008Z,1.30
2023-03-27T01:36:08.440Z,1.90
2023-03-27T01:39:01.110Z,1.60
2023-03-27T01:41:47.948Z,1.40
2023-03-27T01:44:36.487Z,1.60
2023-03-27T01:47:29.824Z,1.30
2023-03-27T01:50:21.140Z,1.30
2023-03-27T01:52:57.468Z,1.73
2023-03-27T01:55:32.637Z,1.30
2023-03-27T01:58:10.204Z,1.40
2023-03-27T02:01:03.678Z,1.48
2023-03-27T02:03:41.777Z,1.88
2023-03-27T02:06:24.791Z,1.80
2023-03-27T02:09:03.346Z,1.67
2023-03-27T02:11:38.194Z,2.28
2023-03-27T02:14:12.401Z,2.45
2023-03-27T02:16:46.484Z,2.47
2023-03-27T02:19:22.241Z,2.10
2023-03-27T02:21:50.391Z,1.85
2023-03-27T02:24:19.102Z,2.40
2023-03-27T02:26:54.058Z,1.70
2023-03-27T02:29:37.405Z,2.20
2023-03-27T02:32:25.321Z,1.98
2023-03-27T02:34:58.773Z,1.73
2023-03-27T02:37:51.844Z,1.45
2023-03-27T02:40:29.126Z,1.65
2023-03-27T02:43:17.619Z,1.30
2023-03-27T02:45:51.773Z,1.40
2023-03-27T02:48:28.610Z,1.20
2023-03-27T02:51:03.025Z,1.30
2023-03-27T02:53:37.952Z,1.23
2023-03-27T02:56:09.337Z,1.33
2023-03-27T02:58:50.613Z,1.27
2023-03-27T03:01:38.017Z,1.00
2023-03-27T03:04:13.620Z,1.30
2023-03-27T03:07:04.333Z,1.08
2023-03-27T03:09:32.737Z,1.20
2023-03-27T03:12:01.957Z,1.20
2023-03-27T03:14:40.156Z,1.48
2023-03-27T03:17:08.271Z,1.30
2023-03-27T03:19:37.261Z,1.00
2023-03-27T03:22:06.316Z,1.20
2023-03-27T03:24:35.788Z,1.10
2023-03-27T03:27:05.851Z,1.27
2023-03-27T03:29:44.275Z,1.10
2023-03-27T03:32:24.339Z,1.45
2023-03-27T03:34:58.665Z,1.50
2023-03-27T03:37:28.907Z,1.70
2023-03-27T03:40:00.968Z,1.70
2023-03-27T03:42:29.086Z,1.50
2023-03-27T03:44:57.160Z,1.98
2023-03-27T03:47:26.109Z,1.65
2023-03-27T03:49:54.718Z,1.50
2023-03-27T03:52:22.828Z,1.70
2023-03-27T03:54:51.915Z,1.52
2023-03-27T03:57:20.014Z,1.67
2023-03-27T04:00:02.358Z,1.80
2023-03-27T04:02:45.469Z,2.13
2023-03-27T04:05:16.595Z,1.80
2023-03-27T04:07:45.687Z,2.58
2023-03-27T04:10:41.357Z,3.35
2023-03-27T04:13:24.371Z,3.50
2023-03-27T04:16:01.778Z,3.92
2023-03-27T04:18:39.925Z,4.03
2023-03-27T04:21:14.295Z,3.63
2023-03-27T04:23:45.203Z,3.67
2023-03-27T04:26:16.154Z,3.30
2023-03-27T04:29:10.337Z,3.30
2023-03-27T04:32:09.619Z,2.45
2023-03-27T04:34:41.286Z,2.33
2023-03-27T04:37:28.748Z,2.60
2023-03-27T04:40:08.353Z,2.70
2023-03-27T04:42:43.131Z,2.53
2023-03-27T04:45:14.958Z,3.08
2023-03-27T04:47:47.490Z,3.60
2023-03-27T04:50:16.284Z,3.35
2023-03-27T04:52:48.401Z,3.53
2023-03-27T04:55:19.360Z,3.92
2023-03-27T04:57:50.215Z,3.97
2023-03-27T05:00:23.739Z,5.63
2023-03-27T05:03:10.803Z,5.93
2023-03-27T05:06:04.093Z,7.82
2023-03-27T05:08:32.850Z,7.68
2023-03-27T05:11:01.284Z,8.70
2023-03-27T05:13:35.604Z,9.32
2023-03-27T05:16:04.946Z,10.00
2023-03-27T05:18:42.167Z,10.27
2023-03-27T05:21:10.966Z,8.82
2023-03-27T05:23:39.375Z,7.65
2023-03-27T05:26:08.873Z,8.43
2023-03-27T05:28:52.673Z,9.73
2023-03-27T05:31:22.319Z,12.40
2023-03-27T05:34:11.574Z,11.73
2023-03-27T05:36:42.886Z,12.25
2023-03-27T05:39:11.866Z,13.73
2023-03-27T05:41:43.328Z,14.27
2023-03-27T05:44:11.658Z,15.00
2023-03-27T05:46:43.492Z,16.88
2023-03-27T05:49:18.349Z,16.00
2023-03-27T05:54:21.986Z,15.38
2023-03-27T05:57:10.691Z,11.82
2023-03-27T05:59:43.355Z,12.13
2023-03-27T06:02:31.162Z,13.40
2023-03-27T06:05:10.876Z,14.10
2023-03-27T06:07:43.276Z,15.38
2023-03-27T06:10:14.445Z,16.77
2023-03-27T06:13:06.566Z,17.73
2023-03-27T06:15:43.307Z,19.10
2023-03-27T06:18:19.853Z,16.95
2023-03-27T06:20:47.955Z,15.75
2023-03-27T06:23:16.141Z,14.63
2023-03-27T06:25:44.286Z,15.65
2023-03-27T06:28:14.562Z,14.65
2023-03-27T06:30:46.894Z,13.57
2023-03-27T06:33:25.941Z,14.95
2023-03-27T06:36:00.951Z,14.00
2023-03-27T06:38:34.872Z,14.73
2023-03-27T06:41:04.307Z,15.10
2023-03-27T06:43:52.211Z,14.68
2023-03-27T06:46:44.587Z,14.07
2023-03-27T06:49:33.337Z,13.77
2023-03-27T06:52:10.888Z,13.95
2023-03-27T06:54:39.782Z,13.05
2023-03-27T06:57:08.019Z,14.15
2023-03-27T06:59:50.083Z,16.73
2023-03-27T07:02:22.997Z,18.60
2023-03-27T07:05:10.832Z,21.70
2023-03-27T07:07:41.685Z,19.15
2023-03-27T07:10:12.108Z,18.75
2023-03-27T07:12:45.456Z,19.33
2023-03-27T07:15:20.194Z,17.58
2023-03-27T07:17:59.875Z,15.38
2023-03-27T07:20:30.941Z,12.95
2023-03-27T07:23:05.937Z,12.07
2023-03-27T07:26:01.331Z,12.25
2023-03-27T07:28:52.417Z,10.52
2023-03-27T07:31:35.041Z,11.50
2023-03-27T07:34:12.489Z,10.32
2023-03-27T07:36:59.177Z,10.90
2023-03-27T07:39:27.814Z,9.63
2023-03-27T07:41:56.141Z,9.57
2023-03-27T07:44:53.437Z,7.78
2023-03-27T07:47:22.018Z,8.30
2023-03-27T07:49:50.652Z,7.30
2023-03-27T07:52:23.161Z,6.68
2023-03-27T07:55:04.843Z,6.18
2023-03-27T07:57:59.881Z,5.78
2023-03-27T08:00:33.942Z,5.70
2023-03-27T08:03:11.948Z,6.47
2023-03-27T08:05:52.034Z,6.00
2023-03-27T08:08:20.906Z,5.97
2023-03-27T08:11:02.378Z,5.57
2023-03-27T08:13:35.424Z,4.75
2023-03-27T08:16:11.300Z,4.40
2023-03-27T08:18:39.939Z,4.60
2023-03-27T08:21:10.480Z,4.13
2023-03-27T08:23:40.950Z,4.03
2023-03-27T08:26:27.861Z,4.93
2023-03-27T08:29:03.713Z,5.10
2023-03-27T08:31:33.553Z,4.85
2023-03-27T08:34:03.472Z,4.65
2023-03-27T08:36:42.340Z,4.53
2023-03-27T08:39:13.371Z,4.63
2023-03-27T08:41:57.677Z,5.07
2023-03-27T08:44:35.993Z,4.38
2023-03-27T08:47:20.399Z,4.95
2023-03-27T08:50:02.606Z,5.10
2023-03-27T08:52:36.196Z,5.20
2023-03-27T08:57:52.784Z,4.85
2023-03-27T09:00:31.936Z,4.87
2023-03-27T09:03:21.256Z,4.97
2023-03-27T09:06:08.480Z,4.78
2023-03-27T09:08:46.979Z,5.30
2023-03-27T09:11:23.808Z,5.22
2023-03-27T09:13:58.283Z,5.15
2023-03-27T09:16:35.853Z,5.20
2023-03-27T09:19:37.328Z,5.15
2023-03-27T09:22:23.648Z,5.53
2023-03-27T09:25:13.381Z,5.15
2023-03-27T09:28:01.682Z,4.80
2023-03-27T09:30:40.031Z,2.72
2023-03-27T09:33:13.611Z,2.25
2023-03-27T09:35:44.691Z,1.85
2023-03-27T09:38:26.147Z,1.80
2023-03-27T09:41:28.794Z,1.58
2023-03-27T09:44:15.614Z,1.58
2023-03-27T09:46:49.676Z,1.83
2023-03-27T09:49:21.178Z,1.90
2023-03-27T09:51:55.006Z,1.20
2023-03-27T09:54:54.999Z,2.05
2023-03-27T09:57:35.915Z,2.47
2023-03-27T10:00:25.124Z,2.97
2023-03-27T10:03:14.683Z,3.17
2023-03-27T10:08:47.677Z,1.52
2023-03-27T10:11:28.682Z,1.70
2023-03-27T10:14:16.301Z,1.67
2023-03-27T10:16:47.695Z,1.65
2023-03-27T10:19:36.360Z,1.27
2023-03-27T10:22:42.809Z,1.17
2023-03-27T10:25:21.115Z,1.20
2023-03-27T10:28:06.933Z,1.20
2023-03-27T10:30:40.599Z,1.15
2023-03-27T10:33:40.654Z,1.03
2023-03-27T10:36:20.350Z,1.13
2023-03-27T10:39:03.985Z,0.95
2023-03-27T10:42:10.791Z,1.20
2023-03-27T10:44:47.090Z,1.25
2023-03-27T10:47:22.517Z,1.10
2023-03-27T10:50:07.886Z,1.00
2023-03-27T10:53:08.987Z,1.30
2023-03-27T10:55:54.460Z,0.85
2023-03-27T10:58:47.407Z,1.05
2023-03-27T11:01:26.479Z,1.00
2023-03-27T11:04:15.364Z,0.80
2023-03-27T11:06:58.584Z,0.90
2023-03-27T11:09:54.247Z,0.90
2023-03-27T11:12:24.873Z,0.60
2023-03-27T11:15:10.156Z,0.63
2023-03-27T11:17:46.814Z,0.50
2023-03-27T11:20:51.855Z,0.50
2023-03-27T11:23:39.633Z,0.38
2023-03-27T11:27:03.354Z,0.40
2023-03-27T11:29:39.609Z,0.40
2023-03-27T11:32:42.153Z,0.40
2023-03-27T11:35:23.123Z,0.28
2023-03-27T11:38:38.151Z,0.20
2023-03-27T11:41:14.639Z,0.13
2023-03-27T11:43:44.214Z,0.20
2023-03-27T11:47:03.026Z,0.20
2023-03-27T11:49:48.660Z,0.30
2023-03-27T11:52:50.474Z,0.30
2023-03-27T11:55:46.843Z,0.30
2023-03-27T11:58:34.861Z,0.20
2023-03-27T12:01:34.886Z,0.30
2023-03-27T12:04:21.857Z,0.35
2023-03-27T12:07:36.378Z,0.20
2023-03-27T12:10:29.130Z,0.28
2023-03-27T12:14:08.898Z,0.40
2023-03-27T12:17:01.840Z,0.13
2023-03-27T12:19:48.774Z,0.20
2023-03-27T12:22:44.842Z,0.50
2023-03-27T12:25:35.432Z,0.30
2023-03-27T12:28:33.042Z,0.30
2023-03-27T12:31:13.431Z,0.30
2023-03-27T12:34:10.787Z,0.30
2023-03-27T12:36:44.603Z,0.20
2023-03-27T12:39:25.177Z,0.30
2023-03-27T12:41:54.809Z,0.40
2023-03-27T12:44:52.805Z,0.28
2023-03-27T12:47:29.585Z,0.30
2023-03-27T12:50:19.854Z,0.40
2023-03-27T12:52:51.074Z,0.32
2023-03-27T12:55:22.363Z,0.20
2023-03-27T12:58:02.990Z,0.28
2023-03-27T13:01:00.193Z,0.47
2023-03-27T13:03:56.852Z,0.70
2023-03-27T13:06:25.154Z,0.43
2023-03-27T13:08:55.477Z,0.50
2023-03-27T13:11:49.525Z,0.38
2023-03-27T13:14:32.820Z,0.50
2023-03-27T13:17:24.928Z,0.60
2023-03-27T13:20:19.898Z,0.40
2023-03-27T13:23:03.208Z,0.60
2023-03-27T13:26:09.309Z,0.60
2023-03-27T13:28:51.073Z,0.30
2023-03-27T13:31:49.679Z,0.13
2023-03-27T13:34:28.668Z,0.20
2023-03-27T13:37:36.834Z,0.22
2023-03-27T13:40:28.664Z,0.20
2023-03-27T13:43:28.466Z,0.10
2023-03-27T13:46:29.159Z,0.10
2023-03-27T13:49:31.798Z,0.47
2023-03-27T13:52:39.504Z,0.20
2023-03-27T13:55:17.572Z,0.43
2023-03-27T13:58:05.962Z,0.50
2023-03-27T14:01:23.373Z,2.00
2023-03-27T14:04:00.921Z,0.68
2023-03-27T14:06:36.347Z,0.32
2023-03-27T14:09:29.838Z,0.17
2023-03-27T14:12:28.037Z,0.43
2023-03-27T14:15:25.320Z,0.40
2023-03-27T14:18:22.735Z,0.45
2023-03-27T14:20:58.342Z,0.30
2023-03-27T14:23:34.569Z,0.60
2023-03-27T14:26:21.594Z,0.98
2023-03-27T14:28:59.111Z,1.33
2023-03-27T14:34:15.710Z,1.10
2023-03-27T14:36:47.566Z,0.77
2023-03-27T14:39:31.400Z,0.50
2023-03-27T14:42:17.100Z,0.57
2023-03-27T14:44:49.251Z,0.50
2023-03-27T14:47:21.858Z,0.40
2023-03-27T14:49:53.915Z,0.22
2023-03-27T14:52:37.216Z,0.20
2023-03-27T14:55:29.755Z,0.40
2023-03-27T14:58:21.496Z,0.20
2023-03-27T15:01:01.070Z,0.55
2023-03-27T15:03:36.804Z,0.38
2023-03-27T15:06:21.117Z,0.30
2023-03-27T15:09:05.363Z,0.60
2023-03-27T15:11:56.330Z,0.10
2023-03-27T15:14:32.221Z,0.40
2023-03-27T15:17:23.779Z,0.60
2023-03-27T15:20:06.653Z,0.90
2023-03-27T15:22:39.910Z,0.80
2023-03-27T15:25:21.624Z,0.93
2023-03-27T15:27:57.470Z,0.63
2023-03-27T15:30:33.701Z,0.32
2023-03-27T15:33:04.399Z,0.52
2023-03-27T15:35:36.157Z,0.45
2023-03-27T15:38:07.341Z,0.20
2023-03-27T15:40:42.363Z,0.32
2023-03-27T15:43:13.756Z,0.50
2023-03-27T15:46:02.670Z,0.30
2023-03-27T15:48:38.603Z,0.47
2023-03-27T15:51:07.788Z,0.40
2023-03-27T15:53:50.226Z,0.30
2023-03-27T15:56:26.326Z,0.30
2023-03-27T15:58:56.213Z,0.40
2023-03-27T16:01:28.408Z,0.40
2023-03-27T16:04:03.336Z,0.20
2023-03-27T16:06:43.088Z,0.40
2023-03-27T16:09:32.872Z,0.10
2023-03-27T16:12:01.328Z,0.40
2023-03-27T16:14:32.466Z,0.55
2023-03-27T16:17:25.006Z,0.38
2023-03-27T16:20:07.693Z,0.80
2023-03-27T16:22:37.394Z,0.32
2023-03-27T16:25:09.969Z,0.22
2023-03-27T16:27:39.651Z,0.65
2023-03-27T16:30:19.979Z,0.30
2023-03-27T16:32:50.979Z,0.30
2023-03-27T16:35:19.620Z,0.40
2023-03-27T16:37:47.872Z,0.40
2023-03-27T16:40:16.409Z,0.63
2023-03-27T16:42:44.517Z,0.50
2023-03-27T16:45:15.127Z,0.77
2023-03-27T16:47:44.256Z,0.43
2023-03-27T16:50:24.986Z,0.55
2023-03-27T16:52:53.226Z,0.40
2023-03-27T16:55:23.523Z,0.47
2023-03-27T16:57:54.115Z,0.40
2023-03-27T17:00:23.011Z,0.20
2023-03-27T17:02:51.851Z,0.40
2023-03-27T17:05:22.464Z,0.60
2023-03-27T17:07:50.549Z,0.43
2023-03-27T17:10:18.814Z,0.47
2023-03-27T17:12:46.966Z,0.30
2023-03-27T17:15:16.122Z,0.50
2023-03-27T17:17:45.202Z,0.55
2023-03-27T17:20:13.469Z,0.60
2023-03-27T17:22:41.717Z,0.60
2023-03-27T17:25:10.262Z,0.47
2023-03-27T17:27:39.666Z,0.40
2023-03-27T17:30:08.430Z,0.30
2023-03-27T17:32:36.923Z,0.30
2023-03-27T17:35:05.529Z,0.52
2023-03-27T17:37:35.744Z,0.77
2023-03-27T17:40:09.496Z,0.90
2023-03-27T17:42:38.333Z,0.80
2023-03-27T17:45:06.942Z,0.60
2023-03-27T17:47:35.155Z,0.52
2023-03-27T17:50:06.990Z,0.50
2023-03-27T17:52:35.253Z,0.73
2023-03-27T17:55:03.384Z,0.90
2023-03-27T17:57:33.040Z,0.98
2023-03-27T18:00:01.395Z,0.57
2023-03-27T18:02:29.726Z,0.60
2023-03-27T18:04:58.081Z,0.52
2023-03-27T18:07:26.226Z,0.80
2023-03-27T18:09:55.176Z,0.80
2023-03-27T18:12:23.335Z,0.47
2023-03-27T18:14:51.599Z,0.40
2023-03-27T18:17:21.276Z,1.10
2023-03-27T18:19:49.500Z,0.65
2023-03-27T18:22:17.756Z,0.60
2023-03-27T18:24:48.558Z,4.40
2023-03-27T18:27:16.735Z,10.48
2023-03-27T18:29:44.950Z,1.60
2023-03-27T18:32:13.142Z,2.38
2023-03-27T18:34:41.398Z,1.70
2023-03-27T18:37:09.527Z,1.00
2023-03-27T18:39:37.990Z,1.13
2023-03-27T18:42:06.252Z,1.27
2023-03-27T18:44:34.919Z,0.73
2023-03-27T18:47:02.998Z,0.70
2023-03-27T18:49:31.156Z,1.80
2023-03-27T18:51:59.289Z,0.57
2023-03-27T18:54:28.194Z,0.80
2023-03-27T18:56:56.352Z,0.80
2023-03-27T18:59:24.585Z,0.70
2023-03-27T19:01:53.440Z,0.82
2023-03-27T19:04:21.695Z,0.73
2023-03-27T19:06:49.948Z,1.00
2023-03-27T19:09:25.577Z,1.63
2023-03-27T19:12:02.907Z,1.10
2023-03-27T19:14:51.401Z,0.80
2023-03-27T19:17:56.257Z,0.93
2023-03-27T19:20:47.810Z,0.68
2023-03-27T19:23:27.368Z,0.68
2023-03-27T19:25:55.786Z,0.70
2023-03-27T19:28:24.028Z,0.70
2023-03-27T19:30:54.264Z,0.80
2023-03-27T19:33:22.559Z,1.00
2023-03-27T19:35:53.636Z,1.15
2023-03-27T19:38:21.884Z,0.73
2023-03-27T19:40:50.293Z,0.88
2023-03-27T19:43:18.933Z,2.17
2023-03-27T19:46:14.248Z,1.08
2023-03-27T19:48:49.628Z,0.57
2023-03-27T19:54:06.176Z,0.93
2023-03-27T19:56:35.332Z,1.40
2023-03-27T19:59:03.957Z,1.10
2023-03-27T20:01:32.313Z,0.80
2023-03-27T20:04:01.404Z,0.93
2023-03-27T20:06:29.976Z,1.02
2023-03-27T20:09:00.486Z,1.30
2023-03-27T20:11:28.729Z,0.80
2023-03-27T20:13:57.343Z,0.90
2023-03-27T20:16:27.618Z,1.00
2023-03-27T20:19:03.780Z,1.20
2023-03-27T20:21:39.536Z,0.98
2023-03-27T20:24:13.688Z,1.00
2023-03-27T20:26:48.135Z,0.98
2023-03-27T20:29:23.483Z,1.05
2023-03-27T20:31:51.689Z,0.80
2023-03-27T20:34:22.498Z,0.95
2023-03-27T20:36:54.910Z,0.70
2023-03-27T20:39:33.556Z,0.93
2023-03-27T20:42:01.771Z,0.90
2023-03-27T20:44:37.330Z,1.17
2023-03-27T20:47:11.280Z,0.85
2023-03-27T20:49:43.346Z,0.90
2023-03-27T20:52:13.975Z,0.85
2023-03-27T20:54:42.321Z,0.75
2023-03-27T20:57:12.426Z,1.00
2023-03-27T20:59:40.604Z,0.90
2023-03-27T21:02:17.965Z,0.90
2023-03-27T21:04:47.585Z,1.05
2023-03-27T21:07:16.788Z,1.33
2023-03-27T21:09:47.440Z,0.98
2023-03-27T21:12:15.770Z,0.90
2023-03-27T21:14:43.842Z,1.38
2023-03-27T21:17:13.395Z,1.17
2023-03-27T21:19:41.561Z,0.80
2023-03-27T21:22:09.681Z,0.90
2023-03-27T21:24:37.858Z,1.02
2023-03-27T21:27:05.902Z,0.80
2023-03-27T21:29:34.072Z,1.00
2023-03-27T21:32:02.272Z,1.05
2023-03-27T21:34:30.604Z,1.85
2023-03-27T21:36:58.774Z,1.13
2023-03-27T21:39:26.894Z,0.90
2023-03-27T21:41:55.064Z,1.10
2023-03-27T21:44:24.576Z,1.05
2023-03-27T21:46:52.879Z,0.80
2023-03-27T21:49:21.088Z,0.90
2023-03-27T21:51:49.212Z,1.00
2023-03-27T21:54:17.494Z,0.80
2023-03-27T21:56:45.736Z,1.10
2023-03-27T21:59:13.963Z,2.05
2023-03-27T22:01:42.137Z,0.95
2023-03-27T22:04:10.429Z,1.10
2023-03-27T22:06:38.566Z,0.90
2023-03-27T22:09:06.733Z,0.98
2023-03-27T22:11:34.872Z,1.10
2023-03-27T22:14:06.080Z,0.80
2023-03-27T22:16:34.364Z,0.95
2023-03-27T22:19:02.488Z,0.85
2023-03-27T22:21:30.824Z,0.90
2023-03-27T22:23:59.634Z,0.80
2023-03-27T22:26:34.744Z,1.10
2023-03-27T22:29:03.647Z,0.90
2023-03-27T22:31:32.088Z,0.88
2023-03-27T22:34:01.087Z,1.20
2023-03-27T22:36:29.226Z,1.23
2023-03-27T22:38:57.644Z,1.33
2023-03-27T22:41:26.177Z,1.08
2023-03-27T22:43:54.592Z,0.90
2023-03-27T22:46:24.031Z,1.02
2023-03-27T22:48:59.099Z,0.73
2023-03-27T22:51:29.790Z,1.10
2023-03-27T22:53:58.170Z,0.88
2023-03-27T22:56:26.275Z,1.20
2023-03-27T22:58:54.410Z,0.88
2023-03-27T23:01:22.550Z,0.77
2023-03-27T23:03:50.797Z,0.80
2023-03-27T23:06:21.174Z,1.17
2023-03-27T23:08:50.120Z,0.90
2023-03-27T23:11:18.641Z,0.80
2023-03-27T23:13:47.208Z,0.90
2023-03-27T23:16:15.664Z,0.80
2023-03-27T23:18:43.738Z,0.70
2023-03-27T23:21:15.810Z,0.88
2023-03-27T23:23:44.679Z,0.70
2023-03-27T23:26:13.223Z,0.88
2023-03-27T23:28:42.684Z,0.90
2023-03-27T23:31:28.908Z,1.15
2023-03-27T23:33:57.210Z,0.90
2023-03-27T23:36:25.982Z,0.90
2023-03-27T23:38:54.263Z,1.15
2023-03-27T23:41:22.758Z,0.70
2023-03-27T23:43:50.998Z,0.80
2023-03-27T23:46:22.183Z,0.90
2023-03-27T23:48:50.367Z,1.00
2023-03-27T23:51:18.469Z,1.30
2023-03-27T23:53:46.641Z,1.00
2023-03-27T23:56:14.741Z,1.10
2023-03-27T23:58:42.933Z,0.98
